sensor_id;sensor_type;location;lat;lon;timestamp;P1;durP1;ratioP1;P2;durP2;ratioP2
13435;SDS011;6790;49.520;8.504;2023-01-25T00:01:42;10.97;;;6.93;;
13435;SDS011;6790;49.520;8.504;2023-01-25T00:04:08;18.43;;;6.77;;
13435;SDS011;6790;49.520;8.504;2023-01-25T00:06:34;16.07;;;8.30;;
13435;SDS011;6790;49.520;8.504;2023-01-25T00:08:59;14.00;;;7.47;;
13435;SDS011;6790;49.520;8.504;2023-01-25T00:11:25;13.57;;;7.53;;
13435;SDS011;6790;49.520;8.504;2023-01-25T00:13:54;14.63;;;6.57;;
13435;SDS011;6790;49.520;8.504;2023-01-25T00:16:21;19.43;;;8.43;;
13435;SDS011;6790;49.520;8.504;2023-01-25T00:18:48;16.50;;;8.80;;
13435;SDS011;6790;49.520;8.504;2023-01-25T00:21:15;16.40;;;7.57;;
13435;SDS011;6790;49.520;8.504;2023-01-25T00:23:48;12.43;;;6.50;;
13435;SDS011;6790;49.520;8.504;2023-01-25T00:26:15;12.70;;;7.50;;
13435;SDS011;6790;49.520;8.504;2023-01-25T00:28:40;12.47;;;6.77;;
13435;SDS011;6790;49.520;8.504;2023-01-25T00:37:29;8.73;;;5.87;;
13435;SDS011;6790;49.520;8.504;2023-01-25T00:40:03;10.57;;;7.07;;
13435;SDS011;6790;49.520;8.504;2023-01-25T00:42:30;9.83;;;6.70;;
13435;SDS011;6790;49.520;8.504;2023-01-25T00:44:56;11.67;;;6.63;;
13435;SDS011;6790;49.520;8.504;2023-01-25T00:47:21;13.53;;;7.57;;
13435;SDS011;6790;49.520;8.504;2023-01-25T00:49:47;13.07;;;7.70;;
13435;SDS011;6790;49.520;8.504;2023-01-25T00:52:13;12.40;;;6.23;;
13435;SDS011;6790;49.520;8.504;2023-01-25T00:58:00;13.20;;;6.27;;
13435;SDS011;6790;49.520;8.504;2023-01-25T01:00:27;13.30;;;7.97;;
13435;SDS011;6790;49.520;8.504;2023-01-25T01:02:53;10.43;;;7.13;;
13435;SDS011;6790;49.520;8.504;2023-01-25T01:05:19;13.40;;;7.07;;
13435;SDS011;6790;49.520;8.504;2023-01-25T01:07:47;13.40;;;7.73;;
13435;SDS011;6790;49.520;8.504;2023-01-25T01:10:32;14.17;;;7.03;;
13435;SDS011;6790;49.520;8.504;2023-01-25T01:24:00;14.27;;;7.40;;
13435;SDS011;6790;49.520;8.504;2023-01-25T01:26:26;10.33;;;5.90;;
13435;SDS011;6790;49.520;8.504;2023-01-25T01:28:51;14.40;;;7.37;;
13435;SDS011;6790;49.520;8.504;2023-01-25T01:31:18;11.77;;;6.77;;
13435;SDS011;6790;49.520;8.504;2023-01-25T01:33:50;15.33;;;8.27;;
13435;SDS011;6790;49.520;8.504;2023-01-25T01:36:18;11.57;;;6.47;;
13435;SDS011;6790;49.520;8.504;2023-01-25T01:38:46;10.53;;;6.03;;
13435;SDS011;6790;49.520;8.504;2023-01-25T01:41:12;13.50;;;6.93;;
13435;SDS011;6790;49.520;8.504;2023-01-25T01:43:39;11.80;;;6.90;;
13435;SDS011;6790;49.520;8.504;2023-01-25T01:46:08;11.77;;;6.93;;
13435;SDS011;6790;49.520;8.504;2023-01-25T01:52:01;8.03;;;5.43;;
13435;SDS011;6790;49.520;8.504;2023-01-25T01:54:40;6.70;;;4.43;;
13435;SDS011;6790;49.520;8.504;2023-01-25T01:57:14;13.13;;;6.07;;
13435;SDS011;6790;49.520;8.504;2023-01-25T02:02:20;10.07;;;5.73;;
13435;SDS011;6790;49.520;8.504;2023-01-25T02:04:49;11.07;;;6.63;;
13435;SDS011;6790;49.520;8.504;2023-01-25T02:07:19;11.07;;;5.90;;
13435;SDS011;6790;49.520;8.504;2023-01-25T02:09:54;7.17;;;4.83;;
13435;SDS011;6790;49.520;8.504;2023-01-25T02:12:20;7.97;;;4.87;;
13435;SDS011;6790;49.520;8.504;2023-01-25T02:14:48;8.30;;;5.23;;
13435;SDS011;6790;49.520;8.504;2023-01-25T02:17:27;12.03;;;6.67;;
13435;SDS011;6790;49.520;8.504;2023-01-25T02:26:00;9.50;;;5.63;;
13435;SDS011;6790;49.520;8.504;2023-01-25T02:28:31;11.57;;;6.00;;
13435;SDS011;6790;49.520;8.504;2023-01-25T02:31:13;9.10;;;5.33;;
13435;SDS011;6790;49.520;8.504;2023-01-25T02:33:39;12.03;;;6.93;;
13435;SDS011;6790;49.520;8.504;2023-01-25T02:39:19;8.77;;;5.40;;
13435;SDS011;6790;49.520;8.504;2023-01-25T02:41:31;10.60;;;5.83;;
13435;SDS011;6790;49.520;8.504;2023-01-25T02:44:07;8.43;;;5.00;;
13435;SDS011;6790;49.520;8.504;2023-01-25T02:46:39;10.27;;;6.73;;
13435;SDS011;6790;49.520;8.504;2023-01-25T02:49:06;13.27;;;6.70;;
13435;SDS011;6790;49.520;8.504;2023-01-25T02:51:34;13.20;;;6.17;;
13435;SDS011;6790;49.520;8.504;2023-01-25T02:54:03;10.67;;;6.37;;
13435;SDS011;6790;49.520;8.504;2023-01-25T02:56:31;11.03;;;5.73;;
13435;SDS011;6790;49.520;8.504;2023-01-25T02:58:57;11.93;;;6.70;;
13435;SDS011;6790;49.520;8.504;2023-01-25T03:01:23;11.10;;;6.37;;
13435;SDS011;6790;49.520;8.504;2023-01-25T03:03:49;8.67;;;4.70;;
13435;SDS011;6790;49.520;8.504;2023-01-25T03:06:15;11.97;;;5.57;;
13435;SDS011;6790;49.520;8.504;2023-01-25T03:08:41;8.60;;;5.37;;
13435;SDS011;6790;49.520;8.504;2023-01-25T03:11:07;12.77;;;5.83;;
13435;SDS011;6790;49.520;8.504;2023-01-25T03:13:33;12.87;;;6.07;;
13435;SDS011;6790;49.520;8.504;2023-01-25T03:16:01;16.07;;;6.90;;
13435;SDS011;6790;49.520;8.504;2023-01-25T03:18:37;9.30;;;5.17;;
13435;SDS011;6790;49.520;8.504;2023-01-25T03:21:04;11.93;;;6.80;;
13435;SDS011;6790;49.520;8.504;2023-01-25T03:23:36;11.93;;;5.53;;
13435;SDS011;6790;49.520;8.504;2023-01-25T03:28:37;10.93;;;5.33;;
13435;SDS011;6790;49.520;8.504;2023-01-25T03:31:05;9.87;;;5.57;;
13435;SDS011;6790;49.520;8.504;2023-01-25T03:33:33;11.13;;;6.10;;
13435;SDS011;6790;49.520;8.504;2023-01-25T03:35:59;11.80;;;6.37;;
13435;SDS011;6790;49.520;8.504;2023-01-25T03:38:25;8.60;;;5.10;;
13435;SDS011;6790;49.520;8.504;2023-01-25T03:40:51;10.73;;;6.57;;
13435;SDS011;6790;49.520;8.504;2023-01-25T03:43:18;9.20;;;5.37;;
13435;SDS011;6790;49.520;8.504;2023-01-25T03:45:45;10.47;;;5.93;;
13435;SDS011;6790;49.520;8.504;2023-01-25T03:48:20;10.07;;;5.80;;
13435;SDS011;6790;49.520;8.504;2023-01-25T03:50:51;7.63;;;4.80;;
13435;SDS011;6790;49.520;8.504;2023-01-25T03:53:19;11.40;;;5.43;;
13435;SDS011;6790;49.520;8.504;2023-01-25T03:55:53;13.37;;;7.13;;
13435;SDS011;6790;49.520;8.504;2023-01-25T03:58:33;10.63;;;5.73;;
13435;SDS011;6790;49.520;8.504;2023-01-25T04:01:04;9.70;;;5.33;;
13435;SDS011;6790;49.520;8.504;2023-01-25T04:03:31;13.23;;;6.17;;
13435;SDS011;6790;49.520;8.504;2023-01-25T04:05:58;10.50;;;5.87;;
13435;SDS011;6790;49.520;8.504;2023-01-25T04:08:24;8.60;;;5.43;;
13435;SDS011;6790;49.520;8.504;2023-01-25T04:10:50;13.87;;;6.43;;
13435;SDS011;6790;49.520;8.504;2023-01-25T04:13:21;13.70;;;6.60;;
13435;SDS011;6790;49.520;8.504;2023-01-25T04:15:49;10.80;;;5.47;;
13435;SDS011;6790;49.520;8.504;2023-01-25T04:18:15;10.40;;;6.13;;
13435;SDS011;6790;49.520;8.504;2023-01-25T04:20:41;11.07;;;5.83;;
13435;SDS011;6790;49.520;8.504;2023-01-25T04:23:07;8.87;;;5.23;;
13435;SDS011;6790;49.520;8.504;2023-01-25T04:25:33;14.07;;;7.63;;
13435;SDS011;6790;49.520;8.504;2023-01-25T04:28:00;14.60;;;8.07;;
13435;SDS011;6790;49.520;8.504;2023-01-25T04:30:26;12.67;;;6.57;;
13435;SDS011;6790;49.520;8.504;2023-01-25T04:32:52;16.00;;;7.30;;
13435;SDS011;6790;49.520;8.504;2023-01-25T04:35:18;12.93;;;7.00;;
13435;SDS011;6790;49.520;8.504;2023-01-25T04:37:51;14.33;;;7.37;;
13435;SDS011;6790;49.520;8.504;2023-01-25T04:40:20;16.87;;;8.27;;
13435;SDS011;6790;49.520;8.504;2023-01-25T04:42:46;14.13;;;7.57;;
13435;SDS011;6790;49.520;8.504;2023-01-25T04:45:12;13.73;;;7.00;;
13435;SDS011;6790;49.520;8.504;2023-01-25T04:47:37;14.87;;;7.20;;
13435;SDS011;6790;49.520;8.504;2023-01-25T04:50:03;15.30;;;8.07;;
13435;SDS011;6790;49.520;8.504;2023-01-25T04:52:29;13.17;;;6.80;;
13435;SDS011;6790;49.520;8.504;2023-01-25T04:54:55;15.57;;;8.60;;
13435;SDS011;6790;49.520;8.504;2023-01-25T04:57:20;17.30;;;7.10;;
13435;SDS011;6790;49.520;8.504;2023-01-25T04:59:46;14.50;;;7.80;;
13435;SDS011;6790;49.520;8.504;2023-01-25T05:02:12;15.13;;;7.73;;
13435;SDS011;6790;49.520;8.504;2023-01-25T05:04:37;13.90;;;7.43;;
13435;SDS011;6790;49.520;8.504;2023-01-25T05:07:03;17.40;;;8.53;;
13435;SDS011;6790;49.520;8.504;2023-01-25T05:09:29;13.50;;;7.33;;
13435;SDS011;6790;49.520;8.504;2023-01-25T05:11:55;15.13;;;7.37;;
13435;SDS011;6790;49.520;8.504;2023-01-25T05:14:20;13.13;;;8.07;;
13435;SDS011;6790;49.520;8.504;2023-01-25T05:16:46;9.60;;;6.30;;
13435;SDS011;6790;49.520;8.504;2023-01-25T05:19:12;12.87;;;6.90;;
13435;SDS011;6790;49.520;8.504;2023-01-25T05:21:37;16.13;;;8.87;;
13435;SDS011;6790;49.520;8.504;2023-01-25T05:24:21;16.30;;;7.70;;
13435;SDS011;6790;49.520;8.504;2023-01-25T05:26:47;12.47;;;6.67;;
13435;SDS011;6790;49.520;8.504;2023-01-25T05:31:56;18.67;;;9.70;;
13435;SDS011;6790;49.520;8.504;2023-01-25T05:34:23;15.70;;;8.77;;
13435;SDS011;6790;49.520;8.504;2023-01-25T05:36:49;12.90;;;6.47;;
13435;SDS011;6790;49.520;8.504;2023-01-25T05:39:15;13.90;;;7.27;;
13435;SDS011;6790;49.520;8.504;2023-01-25T05:41:41;17.83;;;9.20;;
13435;SDS011;6790;49.520;8.504;2023-01-25T05:44:07;15.33;;;8.60;;
13435;SDS011;6790;49.520;8.504;2023-01-25T05:46:33;16.40;;;8.07;;
13435;SDS011;6790;49.520;8.504;2023-01-25T05:48:59;14.07;;;7.43;;
13435;SDS011;6790;49.520;8.504;2023-01-25T05:51:24;14.20;;;7.63;;
13435;SDS011;6790;49.520;8.504;2023-01-25T05:53:53;13.80;;;7.10;;
13435;SDS011;6790;49.520;8.504;2023-01-25T05:56:20;17.13;;;9.00;;
13435;SDS011;6790;49.520;8.504;2023-01-25T05:58:45;15.37;;;7.53;;
13435;SDS011;6790;49.520;8.504;2023-01-25T06:01:11;12.53;;;6.83;;
13435;SDS011;6790;49.520;8.504;2023-01-25T06:03:37;19.03;;;8.27;;
13435;SDS011;6790;49.520;8.504;2023-01-25T06:06:03;18.13;;;9.57;;
13435;SDS011;6790;49.520;8.504;2023-01-25T06:08:29;20.67;;;9.73;;
13435;SDS011;6790;49.520;8.504;2023-01-25T06:10:55;20.23;;;10.73;;
13435;SDS011;6790;49.520;8.504;2023-01-25T06:13:21;18.73;;;9.90;;
13435;SDS011;6790;49.520;8.504;2023-01-25T06:15:54;18.93;;;10.03;;
13435;SDS011;6790;49.520;8.504;2023-01-25T06:18:21;19.50;;;10.10;;
13435;SDS011;6790;49.520;8.504;2023-01-25T06:20:48;18.73;;;9.77;;
13435;SDS011;6790;49.520;8.504;2023-01-25T06:23:14;21.30;;;9.80;;
13435;SDS011;6790;49.520;8.504;2023-01-25T06:25:40;21.47;;;9.57;;
13435;SDS011;6790;49.520;8.504;2023-01-25T06:28:06;21.00;;;9.60;;
13435;SDS011;6790;49.520;8.504;2023-01-25T06:30:32;19.50;;;10.97;;
13435;SDS011;6790;49.520;8.504;2023-01-25T06:32:58;19.27;;;8.73;;
13435;SDS011;6790;49.520;8.504;2023-01-25T06:35:24;21.47;;;9.00;;
13435;SDS011;6790;49.520;8.504;2023-01-25T06:37:50;15.00;;;7.27;;
13435;SDS011;6790;49.520;8.504;2023-01-25T06:40:19;17.57;;;8.47;;
13435;SDS011;6790;49.520;8.504;2023-01-25T06:42:45;17.43;;;9.30;;
13435;SDS011;6790;49.520;8.504;2023-01-25T06:45:11;19.77;;;8.23;;
13435;SDS011;6790;49.520;8.504;2023-01-25T06:47:37;14.90;;;8.37;;
13435;SDS011;6790;49.520;8.504;2023-01-25T06:50:04;18.10;;;9.03;;
13435;SDS011;6790;49.520;8.504;2023-01-25T06:52:30;14.87;;;7.70;;
13435;SDS011;6790;49.520;8.504;2023-01-25T06:55:00;21.87;;;10.83;;
13435;SDS011;6790;49.520;8.504;2023-01-25T06:57:27;17.23;;;8.97;;
13435;SDS011;6790;49.520;8.504;2023-01-25T06:59:53;16.17;;;8.80;;
13435;SDS011;6790;49.520;8.504;2023-01-25T07:02:19;18.00;;;8.67;;
13435;SDS011;6790;49.520;8.504;2023-01-25T07:04:45;16.30;;;7.80;;
13435;SDS011;6790;49.520;8.504;2023-01-25T07:07:10;17.90;;;8.37;;
13435;SDS011;6790;49.520;8.504;2023-01-25T07:09:36;23.70;;;11.63;;
13435;SDS011;6790;49.520;8.504;2023-01-25T07:12:02;31.43;;;16.03;;
13435;SDS011;6790;49.520;8.504;2023-01-25T07:14:30;26.37;;;12.43;;
13435;SDS011;6790;49.520;8.504;2023-01-25T07:16:57;20.53;;;10.13;;
13435;SDS011;6790;49.520;8.504;2023-01-25T07:19:23;16.80;;;8.37;;
13435;SDS011;6790;49.520;8.504;2023-01-25T07:21:49;18.33;;;8.23;;
13435;SDS011;6790;49.520;8.504;2023-01-25T07:24:15;16.43;;;8.90;;
13435;SDS011;6790;49.520;8.504;2023-01-25T07:26:43;12.03;;;5.77;;
13435;SDS011;6790;49.520;8.504;2023-01-25T07:29:10;13.17;;;7.00;;
13435;SDS011;6790;49.520;8.504;2023-01-25T07:31:40;15.73;;;8.37;;
13435;SDS011;6790;49.520;8.504;2023-01-25T07:34:07;16.97;;;8.63;;
13435;SDS011;6790;49.520;8.504;2023-01-25T07:36:36;15.97;;;8.10;;
13435;SDS011;6790;49.520;8.504;2023-01-25T07:39:02;15.70;;;7.67;;
13435;SDS011;6790;49.520;8.504;2023-01-25T07:41:28;18.03;;;8.40;;
13435;SDS011;6790;49.520;8.504;2023-01-25T07:43:54;12.10;;;7.40;;
13435;SDS011;6790;49.520;8.504;2023-01-25T07:46:20;15.73;;;9.20;;
13435;SDS011;6790;49.520;8.504;2023-01-25T07:48:47;19.73;;;9.10;;
13435;SDS011;6790;49.520;8.504;2023-01-25T07:51:16;16.87;;;8.23;;
13435;SDS011;6790;49.520;8.504;2023-01-25T07:53:46;20.00;;;9.60;;
13435;SDS011;6790;49.520;8.504;2023-01-25T07:56:30;21.60;;;10.63;;
13435;SDS011;6790;49.520;8.504;2023-01-25T07:59:02;17.77;;;9.23;;
13435;SDS011;6790;49.520;8.504;2023-01-25T08:01:28;16.70;;;7.60;;
13435;SDS011;6790;49.520;8.504;2023-01-25T08:03:58;21.60;;;7.60;;
13435;SDS011;6790;49.520;8.504;2023-01-25T08:06:25;14.10;;;7.17;;
13435;SDS011;6790;49.520;8.504;2023-01-25T08:08:59;20.47;;;9.73;;
13435;SDS011;6790;49.520;8.504;2023-01-25T08:11:43;12.50;;;6.77;;
13435;SDS011;6790;49.520;8.504;2023-01-25T08:14:09;13.43;;;7.40;;
13435;SDS011;6790;49.520;8.504;2023-01-25T08:16:35;18.50;;;7.40;;
13435;SDS011;6790;49.520;8.504;2023-01-25T08:19:01;14.80;;;7.43;;
13435;SDS011;6790;49.520;8.504;2023-01-25T08:21:29;14.00;;;7.77;;
13435;SDS011;6790;49.520;8.504;2023-01-25T08:23:57;17.13;;;8.43;;
13435;SDS011;6790;49.520;8.504;2023-01-25T08:26:27;12.23;;;7.37;;
13435;SDS011;6790;49.520;8.504;2023-01-25T08:28:53;14.77;;;7.60;;
13435;SDS011;6790;49.520;8.504;2023-01-25T08:31:21;13.77;;;8.03;;
13435;SDS011;6790;49.520;8.504;2023-01-25T08:33:49;11.77;;;6.70;;
13435;SDS011;6790;49.520;8.504;2023-01-25T08:36:16;11.60;;;6.60;;
13435;SDS011;6790;49.520;8.504;2023-01-25T08:38:44;11.03;;;5.80;;
13435;SDS011;6790;49.520;8.504;2023-01-25T08:41:15;16.63;;;8.67;;
13435;SDS011;6790;49.520;8.504;2023-01-25T08:43:43;15.03;;;6.73;;
13435;SDS011;6790;49.520;8.504;2023-01-25T08:46:10;12.87;;;7.17;;
13435;SDS011;6790;49.520;8.504;2023-01-25T08:48:38;10.57;;;6.27;;
13435;SDS011;6790;49.520;8.504;2023-01-25T08:51:03;17.93;;;8.40;;
13435;SDS011;6790;49.520;8.504;2023-01-25T08:53:32;13.17;;;6.43;;
13435;SDS011;6790;49.520;8.504;2023-01-25T08:56:05;14.93;;;7.23;;
13435;SDS011;6790;49.520;8.504;2023-01-25T08:58:33;11.50;;;5.83;;
13435;SDS011;6790;49.520;8.504;2023-01-25T09:01:02;15.23;;;7.00;;
13435;SDS011;6790;49.520;8.504;2023-01-25T09:03:34;15.70;;;8.03;;
13435;SDS011;6790;49.520;8.504;2023-01-25T09:06:06;14.00;;;7.70;;
13435;SDS011;6790;49.520;8.504;2023-01-25T09:08:33;11.83;;;6.80;;
13435;SDS011;6790;49.520;8.504;2023-01-25T09:11:04;14.87;;;7.67;;
13435;SDS011;6790;49.520;8.504;2023-01-25T09:13:33;11.33;;;6.40;;
13435;SDS011;6790;49.520;8.504;2023-01-25T09:16:00;13.03;;;7.10;;
13435;SDS011;6790;49.520;8.504;2023-01-25T09:18:28;12.07;;;6.00;;
13435;SDS011;6790;49.520;8.504;2023-01-25T09:20:55;10.67;;;6.03;;
13435;SDS011;6790;49.520;8.504;2023-01-25T09:23:21;14.97;;;8.10;;
13435;SDS011;6790;49.520;8.504;2023-01-25T09:25:48;12.70;;;6.97;;
13435;SDS011;6790;49.520;8.504;2023-01-25T09:28:21;10.50;;;5.80;;
13435;SDS011;6790;49.520;8.504;2023-01-25T09:30:54;13.17;;;6.60;;
13435;SDS011;6790;49.520;8.504;2023-01-25T09:33:29;11.33;;;6.07;;
13435;SDS011;6790;49.520;8.504;2023-01-25T09:35:58;9.77;;;5.80;;
13435;SDS011;6790;49.520;8.504;2023-01-25T09:38:25;9.87;;;5.97;;
13435;SDS011;6790;49.520;8.504;2023-01-25T09:40:56;15.53;;;6.43;;
13435;SDS011;6790;49.520;8.504;2023-01-25T09:46:28;12.33;;;6.43;;
13435;SDS011;6790;49.520;8.504;2023-01-25T09:55:18;8.97;;;5.30;;
13435;SDS011;6790;49.520;8.504;2023-01-25T09:57:46;8.87;;;5.67;;
13435;SDS011;6790;49.520;8.504;2023-01-25T10:00:19;9.13;;;5.73;;
13435;SDS011;6790;49.520;8.504;2023-01-25T10:05:50;9.90;;;5.90;;
13435;SDS011;6790;49.520;8.504;2023-01-25T10:13:50;10.13;;;6.37;;
13435;SDS011;6790;49.520;8.504;2023-01-25T10:16:30;11.07;;;5.93;;
13435;SDS011;6790;49.520;8.504;2023-01-25T10:22:14;11.80;;;6.00;;
13435;SDS011;6790;49.520;8.504;2023-01-25T10:24:54;9.90;;;5.77;;
13435;SDS011;6790;49.520;8.504;2023-01-25T10:30:19;13.40;;;6.40;;
13435;SDS011;6790;49.520;8.504;2023-01-25T10:32:51;8.77;;;5.53;;
13435;SDS011;6790;49.520;8.504;2023-01-25T10:35:26;11.30;;;5.37;;
13435;SDS011;6790;49.520;8.504;2023-01-25T10:37:58;10.77;;;6.27;;
13435;SDS011;6790;49.520;8.504;2023-01-25T10:40:28;12.40;;;6.53;;
13435;SDS011;6790;49.520;8.504;2023-01-25T10:43:22;9.17;;;6.73;;
13435;SDS011;6790;49.520;8.504;2023-01-25T10:45:48;9.53;;;5.77;;
13435;SDS011;6790;49.520;8.504;2023-01-25T10:48:34;10.30;;;5.97;;
13435;SDS011;6790;49.520;8.504;2023-01-25T10:51:01;7.77;;;4.93;;
13435;SDS011;6790;49.520;8.504;2023-01-25T10:53:34;9.00;;;5.57;;
13435;SDS011;6790;49.520;8.504;2023-01-25T10:58:42;8.73;;;6.00;;
13435;SDS011;6790;49.520;8.504;2023-01-25T11:01:11;8.33;;;5.80;;
13435;SDS011;6790;49.520;8.504;2023-01-25T11:03:50;10.77;;;5.93;;
13435;SDS011;6790;49.520;8.504;2023-01-25T11:06:16;7.77;;;4.93;;
13435;SDS011;6790;49.520;8.504;2023-01-25T11:11:56;9.00;;;4.80;;
13435;SDS011;6790;49.520;8.504;2023-01-25T11:14:52;10.57;;;5.50;;
13435;SDS011;6790;49.520;8.504;2023-01-25T11:17:25;9.07;;;5.40;;
13435;SDS011;6790;49.520;8.504;2023-01-25T11:22:53;10.13;;;5.67;;
13435;SDS011;6790;49.520;8.504;2023-01-25T11:25:24;9.27;;;5.27;;
13435;SDS011;6790;49.520;8.504;2023-01-25T11:30:49;13.37;;;5.73;;
13435;SDS011;6790;49.520;8.504;2023-01-25T11:33:17;9.80;;;5.43;;
13435;SDS011;6790;49.520;8.504;2023-01-25T11:35:51;7.77;;;5.47;;
13435;SDS011;6790;49.520;8.504;2023-01-25T11:56:14;8.10;;;4.70;;
13435;SDS011;6790;49.520;8.504;2023-01-25T12:02:23;13.63;;;6.60;;
13435;SDS011;6790;49.520;8.504;2023-01-25T12:06:29;9.47;;;4.77;;
13435;SDS011;6790;49.520;8.504;2023-01-25T12:08:43;12.57;;;5.93;;
13435;SDS011;6790;49.520;8.504;2023-01-25T12:14:44;11.53;;;5.10;;
13435;SDS011;6790;49.520;8.504;2023-01-25T12:20:27;10.10;;;5.73;;
13435;SDS011;6790;49.520;8.504;2023-01-25T12:23:21;9.63;;;5.33;;
13435;SDS011;6790;49.520;8.504;2023-01-25T12:26:05;12.40;;;6.23;;
13435;SDS011;6790;49.520;8.504;2023-01-25T12:28:53;8.73;;;4.87;;
13435;SDS011;6790;49.520;8.504;2023-01-25T12:31:33;10.90;;;5.97;;
13435;SDS011;6790;49.520;8.504;2023-01-25T12:34:41;10.70;;;4.87;;
13435;SDS011;6790;49.520;8.504;2023-01-25T12:37:18;12.20;;;6.53;;
13435;SDS011;6790;49.520;8.504;2023-01-25T12:39:57;11.80;;;6.43;;
13435;SDS011;6790;49.520;8.504;2023-01-25T12:42:50;10.40;;;5.70;;
13435;SDS011;6790;49.520;8.504;2023-01-25T12:45:27;12.90;;;6.67;;
13435;SDS011;6790;49.520;8.504;2023-01-25T12:50:38;8.90;;;5.77;;
13435;SDS011;6790;49.520;8.504;2023-01-25T12:53:30;9.63;;;6.00;;
13435;SDS011;6790;49.520;8.504;2023-01-25T12:56:03;12.80;;;6.43;;
13435;SDS011;6790;49.520;8.504;2023-01-25T13:01:31;9.53;;;5.23;;
13435;SDS011;6790;49.520;8.504;2023-01-25T13:12:09;13.90;;;7.07;;
13435;SDS011;6790;49.520;8.504;2023-01-25T13:14:37;8.40;;;5.43;;
13435;SDS011;6790;49.520;8.504;2023-01-25T13:19:48;9.90;;;5.97;;
13435;SDS011;6790;49.520;8.504;2023-01-25T13:22:52;8.00;;;5.00;;
13435;SDS011;6790;49.520;8.504;2023-01-25T13:25:07;10.67;;;7.20;;
13435;SDS011;6790;49.520;8.504;2023-01-25T13:27:39;10.00;;;6.63;;
13435;SDS011;6790;49.520;8.504;2023-01-25T13:38:00;10.87;;;6.13;;
13435;SDS011;6790;49.520;8.504;2023-01-25T13:40:44;13.40;;;7.13;;
13435;SDS011;6790;49.520;8.504;2023-01-25T13:43:26;13.13;;;6.07;;
13435;SDS011;6790;49.520;8.504;2023-01-25T13:45:52;11.67;;;6.00;;
13435;SDS011;6790;49.520;8.504;2023-01-25T13:48:18;18.50;;;6.63;;
13435;SDS011;6790;49.520;8.504;2023-01-25T13:50:50;8.60;;;5.43;;
13435;SDS011;6790;49.520;8.504;2023-01-25T13:53:21;12.23;;;6.07;;
13435;SDS011;6790;49.520;8.504;2023-01-25T13:55:50;13.30;;;6.97;;
13435;SDS011;6790;49.520;8.504;2023-01-25T14:00:50;10.83;;;5.37;;
13435;SDS011;6790;49.520;8.504;2023-01-25T14:03:34;16.03;;;7.70;;
13435;SDS011;6790;49.520;8.504;2023-01-25T14:06:22;12.80;;;6.33;;
13435;SDS011;6790;49.520;8.504;2023-01-25T14:08:53;12.83;;;7.00;;
13435;SDS011;6790;49.520;8.504;2023-01-25T14:11:25;25.23;;;11.10;;
13435;SDS011;6790;49.520;8.504;2023-01-25T14:14:17;19.23;;;10.07;;
13435;SDS011;6790;49.520;8.504;2023-01-25T14:16:44;17.33;;;8.33;;
13435;SDS011;6790;49.520;8.504;2023-01-25T14:19:23;13.53;;;6.77;;
13435;SDS011;6790;49.520;8.504;2023-01-25T14:22:10;11.77;;;6.60;;
13435;SDS011;6790;49.520;8.504;2023-01-25T14:24:37;10.77;;;5.77;;
13435;SDS011;6790;49.520;8.504;2023-01-25T14:27:03;13.17;;;6.97;;
13435;SDS011;6790;49.520;8.504;2023-01-25T14:29:29;12.67;;;7.53;;
13435;SDS011;6790;49.520;8.504;2023-01-25T14:31:59;12.10;;;6.47;;
13435;SDS011;6790;49.520;8.504;2023-01-25T14:34:25;13.33;;;7.40;;
13435;SDS011;6790;49.520;8.504;2023-01-25T14:39:42;14.20;;;7.97;;
13435;SDS011;6790;49.520;8.504;2023-01-25T14:42:09;11.83;;;6.37;;
13435;SDS011;6790;49.520;8.504;2023-01-25T14:44:35;13.70;;;6.97;;
13435;SDS011;6790;49.520;8.504;2023-01-25T14:53:07;13.87;;;8.07;;
13435;SDS011;6790;49.520;8.504;2023-01-25T14:55:44;15.03;;;6.90;;
13435;SDS011;6790;49.520;8.504;2023-01-25T14:58:16;11.23;;;5.63;;
13435;SDS011;6790;49.520;8.504;2023-01-25T15:00:51;13.53;;;6.10;;
13435;SDS011;6790;49.520;8.504;2023-01-25T15:03:24;10.87;;;6.83;;
13435;SDS011;6790;49.520;8.504;2023-01-25T15:05:51;17.57;;;8.07;;
13435;SDS011;6790;49.520;8.504;2023-01-25T15:08:33;11.40;;;6.13;;
13435;SDS011;6790;49.520;8.504;2023-01-25T15:11:01;10.50;;;6.63;;
13435;SDS011;6790;49.520;8.504;2023-01-25T15:13:45;16.43;;;6.73;;
13435;SDS011;6790;49.520;8.504;2023-01-25T15:16:11;10.37;;;5.57;;
13435;SDS011;6790;49.520;8.504;2023-01-25T15:21:19;12.80;;;7.10;;
13435;SDS011;6790;49.520;8.504;2023-01-25T15:23:54;12.20;;;6.40;;
13435;SDS011;6790;49.520;8.504;2023-01-25T15:26:26;16.97;;;6.60;;
13435;SDS011;6790;49.520;8.504;2023-01-25T15:28:54;11.33;;;5.97;;
13435;SDS011;6790;49.520;8.504;2023-01-25T15:31:24;10.53;;;6.13;;
13435;SDS011;6790;49.520;8.504;2023-01-25T15:33:56;11.23;;;6.50;;
13435;SDS011;6790;49.520;8.504;2023-01-25T15:36:23;11.00;;;6.17;;
13435;SDS011;6790;49.520;8.504;2023-01-25T15:38:50;11.87;;;6.47;;
13435;SDS011;6790;49.520;8.504;2023-01-25T15:41:16;13.67;;;6.73;;
13435;SDS011;6790;49.520;8.504;2023-01-25T15:43:42;10.07;;;5.90;;
13435;SDS011;6790;49.520;8.504;2023-01-25T15:46:17;18.27;;;9.17;;
13435;SDS011;6790;49.520;8.504;2023-01-25T15:48:49;16.50;;;7.97;;
13435;SDS011;6790;49.520;8.504;2023-01-25T15:51:16;10.57;;;6.37;;
13435;SDS011;6790;49.520;8.504;2023-01-25T15:53:42;17.17;;;8.33;;
13435;SDS011;6790;49.520;8.504;2023-01-25T15:56:12;11.50;;;6.37;;
13435;SDS011;6790;49.520;8.504;2023-01-25T15:58:50;13.37;;;5.57;;
13435;SDS011;6790;49.520;8.504;2023-01-25T16:01:18;13.67;;;7.03;;
13435;SDS011;6790;49.520;8.504;2023-01-25T16:03:45;17.37;;;9.97;;
13435;SDS011;6790;49.520;8.504;2023-01-25T16:09:14;12.00;;;6.57;;
13435;SDS011;6790;49.520;8.504;2023-01-25T16:11:49;13.90;;;6.00;;
13435;SDS011;6790;49.520;8.504;2023-01-25T16:14:20;9.70;;;6.43;;
13435;SDS011;6790;49.520;8.504;2023-01-25T16:16:53;11.53;;;6.77;;
13435;SDS011;6790;49.520;8.504;2023-01-25T16:19:21;12.57;;;7.27;;
13435;SDS011;6790;49.520;8.504;2023-01-25T16:21:48;10.00;;;5.90;;
13435;SDS011;6790;49.520;8.504;2023-01-25T16:24:15;14.97;;;7.83;;
13435;SDS011;6790;49.520;8.504;2023-01-25T16:26:47;14.43;;;7.87;;
13435;SDS011;6790;49.520;8.504;2023-01-25T16:29:15;15.90;;;8.30;;
13435;SDS011;6790;49.520;8.504;2023-01-25T16:31:41;16.47;;;7.50;;
13435;SDS011;6790;49.520;8.504;2023-01-25T16:34:06;14.40;;;7.60;;
13435;SDS011;6790;49.520;8.504;2023-01-25T16:36:32;15.67;;;8.50;;
13435;SDS011;6790;49.520;8.504;2023-01-25T16:39:04;15.50;;;6.03;;
13435;SDS011;6790;49.520;8.504;2023-01-25T16:41:40;14.27;;;7.40;;
13435;SDS011;6790;49.520;8.504;2023-01-25T16:44:05;13.70;;;6.47;;
13435;SDS011;6790;49.520;8.504;2023-01-25T16:46:31;11.23;;;6.70;;
13435;SDS011;6790;49.520;8.504;2023-01-25T16:48:57;14.57;;;6.87;;
13435;SDS011;6790;49.520;8.504;2023-01-25T16:51:24;15.30;;;7.60;;
13435;SDS011;6790;49.520;8.504;2023-01-25T16:53:52;12.47;;;6.80;;
13435;SDS011;6790;49.520;8.504;2023-01-25T16:56:21;15.17;;;6.50;;
13435;SDS011;6790;49.520;8.504;2023-01-25T16:58:49;11.43;;;6.43;;
13435;SDS011;6790;49.520;8.504;2023-01-25T17:01:17;14.07;;;7.03;;
13435;SDS011;6790;49.520;8.504;2023-01-25T17:03:44;14.80;;;8.67;;
13435;SDS011;6790;49.520;8.504;2023-01-25T17:06:16;13.23;;;7.07;;
13435;SDS011;6790;49.520;8.504;2023-01-25T17:08:43;14.00;;;7.97;;
13435;SDS011;6790;49.520;8.504;2023-01-25T17:11:13;10.77;;;6.47;;
13435;SDS011;6790;49.520;8.504;2023-01-25T17:13:39;18.07;;;8.73;;
13435;SDS011;6790;49.520;8.504;2023-01-25T17:16:05;16.40;;;7.60;;
13435;SDS011;6790;49.520;8.504;2023-01-25T17:18:32;15.90;;;8.67;;
13435;SDS011;6790;49.520;8.504;2023-01-25T17:20:58;18.20;;;10.07;;
13435;SDS011;6790;49.520;8.504;2023-01-25T17:23:25;16.67;;;8.37;;
13435;SDS011;6790;49.520;8.504;2023-01-25T17:25:52;19.63;;;8.37;;
13435;SDS011;6790;49.520;8.504;2023-01-25T17:28:19;16.73;;;8.47;;
13435;SDS011;6790;49.520;8.504;2023-01-25T17:30:46;17.40;;;9.13;;
13435;SDS011;6790;49.520;8.504;2023-01-25T17:33:11;20.17;;;9.67;;